F/V Renaissance II — FMEW — position and weather

sailwx.info

Track history (hours):
 
Tides and Currents Weather Stations Pressure Air Temp Water Temp Dewpoint Dewpoint Depression Visibility Wind Speed Wind Dir Waves Ship Positions

F/V Renaissance II

Last reported at 2014-Oct-21 03:24 UTC. Time now 2014-Oct-21 07:08 UTC.
Position N 46°36' W 002°18'.

Length 18 m.

Type: Fishing. MMSI: 228216600.

Date/timePositionNaut miles runAvg speedWind from/ knotsBaromVisibWave heightAir tempDewpointWater temp
2014-Oct-21 03:24N 46°36' W 002°18'6 7.5
2014-Oct-21 02:33N 46°34' W 002°09'8 7.5
2014-Oct-21 01:33N 46°31' W 001°59'7 7.5
2014-Oct-21 00:33N 46°29' W 001°49'2 1.8
2014-Oct-20 23:33N 46°30' W 001°47'1 0.6
2014-Oct-20 22:33N 46°29' W 001°47'6 6.4
2014-Oct-20 21:33N 46°31' W 001°57'9 7.9
2014-Oct-20 20:24N 46°34' W 002°09'13 0.8
2014-Oct-20 05:14N 46°40' W 002°25'6 9.4
2014-Oct-20 04:33N 46°37' W 002°17'9 9.3
2014-Oct-20 03:33N 46°33' W 002°05'9 9.2
2014-Oct-20 02:33N 46°29' W 001°53'4 3.8
2014-Oct-20 01:33N 46°30' W 001°47'0 0.1
2014-Oct-20 00:33N 46°30' W 001°47'2 1.7
2014-Oct-19 23:33N 46°28' W 001°48'8 7.9
2014-Oct-19 22:33N 46°31' W 001°58'8 7.8
2014-Oct-19 21:33N 46°35' W 002°09'8 8.1
2014-Oct-19 20:33N 46°38' W 002°19'8 0.5
2014-Oct-19 04:20N 46°43' W 002°29'9 8.7
2014-Oct-19 03:21N 46°38' W 002°17'7 8.5
2014-Oct-19 02:33N 46°36' W 002°09'8 8.3
2014-Oct-19 01:33N 46°32' W 001°58'8 7.9
2014-Oct-19 00:33N 46°29' W 001°47'1 1.1
2014-Oct-18 23:33N 46°30' W 001°47'6 5.6
2014-Oct-18 22:33N 46°31' W 001°55'9 9.0
2014-Oct-18 21:33N 46°35' W 002°07'5 0.3
2014-Oct-18 02:33N 46°37' W 002°13'8 8.4
2014-Oct-18 01:33N 46°33' W 002°03'8 8.2
2014-Oct-18 00:33N 46°29' W 001°52'3 3.4
2014-Oct-17 23:33N 46°30' W 001°47'0 0.4
2014-Oct-17 22:34N 46°30' W 001°48'7 6.7
2014-Oct-17 21:33N 46°31' W 001°57'10 9.1
2014-Oct-17 20:29N 46°36' W 002°10'17 0.7
2014-Oct-16 20:16N 46°30' W 001°47'0 0.0
2014-Oct-16 19:33N 46°30' W 001°47'0 0.0
2014-Oct-16 18:33N 46°30' W 001°47'0 0.0
2014-Oct-16 17:33N 46°30' W 001°47'2 2.3
2014-Oct-16 16:33N 46°28' W 001°50'9 8.6
2014-Oct-16 15:33N 46°32' W 002°02'11 2.6
2014-Oct-16 11:29N 46°33' W 002°17'8 6.6
2014-Oct-16 10:12N 46°25' W 002°11'1 0.6
2014-Oct-16 09:16N 46°25' W 002°12'2 1.2
2014-Oct-16 07:19N 46°23' W 002°12'7 7.4
2014-Oct-16 06:25N 46°25' W 002°03'7 8.5
2014-Oct-16 05:33N 46°27' W 001°53'5 4.7
2014-Oct-16 04:33N 46°30' W 001°47'0 0.0
2014-Oct-16 03:33N 46°30' W 001°47'0 0.0
2014-Oct-16 02:33N 46°30' W 001°47'0 0.0
2014-Oct-16 01:34N 46°30' W 001°47'0 0.0
2014-Oct-16 00:33N 46°30' W 001°47'0 0.0
2014-Oct-15 23:33N 46°30' W 001°47'0 0.0
2014-Oct-15 22:33N 46°30' W 001°47'0 0.0
2014-Oct-15 21:33N 46°30' W 001°47'0 0.0
2014-Oct-15 20:33N 46°30' W 001°47'0 0.2
2014-Oct-15 19:33N 46°30' W 001°47'1 1.1
2014-Oct-15 18:33N 46°29' W 001°47'9 9.5
2014-Oct-15 17:33N 46°28' W 002°01'6 2.8
2014-Oct-15 15:31N 46°25' W 002°08'1 0.7
2014-Oct-15 14:04N 46°25' W 002°09'1 0.5
2014-Oct-15 12:33N 46°24' W 002°10'1 0.7
2014-Oct-15 11:24N 46°24' W 002°11'8 0.5
2014-Oct-14 20:07N 46°18' W 002°03'5 9.8
2014-Oct-14 19:33N 46°22' W 001°58'10 9.8
2014-Oct-14 18:33N 46°29' W 001°47'1 1.4
2014-Oct-14 17:33N 46°30' W 001°47'8 8.1
2014-Oct-14 16:33N 46°27' W 001°58'9 9.1
2014-Oct-14 15:33N 46°24' W 002°11'2 1.8
2014-Oct-14 14:33N 46°23' W 002°12'7 7.2
2014-Oct-14 13:33N 46°30' W 002°09'2 1.6
2014-Oct-14 12:30N 46°31' W 002°10'0 0.3
2014-Oct-14 11:33N 46°31' W 002°11'1 1.3
2014-Oct-14 10:33N 46°31' W 002°09'5 2.4
2014-Oct-14 08:33N 46°31' W 002°16'1 1.3
2014-Oct-14 07:24N 46°30' W 002°14'1 1.1
2014-Oct-14 06:34N 46°31' W 002°15'9 8.6
2014-Oct-14 05:33N 46°30' W 002°03'9 9.5
2014-Oct-14 04:33N 46°28' W 001°49'2 1.8
2014-Oct-14 03:33N 46°30' W 001°48'0 0.0
2014-Oct-14 02:33N 46°30' W 001°48'0 0.0
2014-Oct-14 01:33N 46°30' W 001°48'0 0.0
2014-Oct-14 00:33N 46°30' W 001°48'0 0.0
2014-Oct-13 23:33N 46°30' W 001°48'0 0.0
2014-Oct-13 22:33N 46°30' W 001°48'0 0.0
2014-Oct-13 21:33N 46°30' W 001°48'0 0.2
2014-Oct-13 20:34N 46°30' W 001°47'0 0.4
2014-Oct-13 19:34N 46°30' W 001°48'8 8.1
2014-Oct-13 18:33N 46°30' W 001°59'10 4.2
2014-Oct-13 16:16N 46°31' W 002°13'2 1.1
2014-Oct-13 14:33N 46°30' W 002°16'1 0.4
2014-Oct-13 12:30N 46°31' W 002°16'1 1.6
2014-Oct-13 11:33N 46°31' W 002°14'1 0.6
2014-Oct-13 09:22N 46°30' W 002°16'4 1.5
2014-Oct-13 06:32N 46°26' W 002°16'8 6.7
2014-Oct-13 05:22N 46°27' W 002°04'7 8.4
2014-Oct-13 04:33N 46°28' W 001°55'5 5.1
2014-Oct-13 03:33N 46°30' W 001°48'0 0.0
2014-Oct-13 02:33N 46°30' W 001°48'0 0.0
2014-Oct-13 01:33N 46°30' W 001°48'0 0.0
2014-Oct-13 00:33N 46°30' W 001°48'0 0.0
2014-Oct-12 23:33N 46°30' W 001°48'0 0.0
2014-Oct-12 22:33N 46°30' W 001°48'0 0.0
2014-Oct-12 21:33N 46°30' W 001°48'0 0.0
2014-Oct-12 20:33N 46°30' W 001°48'0 0.0
2014-Oct-12 19:33N 46°30' W 001°48'0 0.0
2014-Oct-12 18:33N 46°30' W 001°48'4 4.0
2014-Oct-12 17:33N 46°26' W 001°47'20 1.8
2014-Oct-12 06:33N 46°06' W 001°48'9 9.3
2014-Oct-12 05:33N 46°16' W 001°48'10 9.6
2014-Oct-12 04:33N 46°25' W 001°48'5 4.8
2014-Oct-12 03:33N 46°30' W 001°47'0 0.2
2014-Oct-12 02:33N 46°30' W 001°47'0 0.0
2014-Oct-12 01:33N 46°30' W 001°47'0 0.0
2014-Oct-12 00:33N 46°30' W 001°47'0 0.0
2014-Oct-11 23:33N 46°30' W 001°47'0 0.0
2014-Oct-11 22:33N 46°30' W 001°47'0 0.0
2014-Oct-11 21:33N 46°30' W 001°47'0 0.0
2014-Oct-11 20:33N 46°30' W 001°47'0 0.0
2014-Oct-11 19:33N 46°30' W 001°47'8 7.8
2014-Oct-11 18:33N 46°22' W 001°47'17 2.8
2014-Oct-11 12:32N 46°05' W 001°48'1 0.2
2014-Oct-11 08:10N 46°06' W 001°47'3 4.9
2014-Oct-11 07:30N 46°07' W 001°52'1 1.4
2014-Oct-11 06:26N 46°08' W 001°51'3 3.6
2014-Oct-11 05:33N 46°11' W 001°52'6 6.4
2014-Oct-11 04:33N 46°18' W 001°50'6 6.3
2014-Oct-11 03:33N 46°24' W 001°49'  
Track history (hours):
 
Tides and Currents Weather Stations Pressure Air Temp Water Temp Dewpoint Dewpoint Depression Visibility Wind Speed Wind Dir Waves Ship Positions

F/V Renaissance II

Last reported at 2014-Oct-21 03:24 UTC. Time now 2014-Oct-21 07:08 UTC.
Position N 46°36' W 002°18'.

Length 18 m.

Type: Fishing. MMSI: 228216600.

Date/timePositionNaut miles runAvg speedWind from/ knotsBaromVisibWave heightAir tempDewpointWater temp
2014-Oct-21 03:24N 46°36' W 002°18'6 7.5
2014-Oct-21 02:33N 46°34' W 002°09'8 7.5
2014-Oct-21 01:33N 46°31' W 001°59'7 7.5
2014-Oct-21 00:33N 46°29' W 001°49'2 1.8
2014-Oct-20 23:33N 46°30' W 001°47'1 0.6
2014-Oct-20 22:33N 46°29' W 001°47'6 6.4
2014-Oct-20 21:33N 46°31' W 001°57'9 7.9
2014-Oct-20 20:24N 46°34' W 002°09'13 0.8
2014-Oct-20 05:14N 46°40' W 002°25'6 9.4
2014-Oct-20 04:33N 46°37' W 002°17'9 9.3
2014-Oct-20 03:33N 46°33' W 002°05'9 9.2
2014-Oct-20 02:33N 46°29' W 001°53'4 3.8
2014-Oct-20 01:33N 46°30' W 001°47'0 0.1
2014-Oct-20 00:33N 46°30' W 001°47'2 1.7
2014-Oct-19 23:33N 46°28' W 001°48'8 7.9
2014-Oct-19 22:33N 46°31' W 001°58'8 7.8
2014-Oct-19 21:33N 46°35' W 002°09'8 8.1
2014-Oct-19 20:33N 46°38' W 002°19'8 0.5
2014-Oct-19 04:20N 46°43' W 002°29'9 8.7
2014-Oct-19 03:21N 46°38' W 002°17'7 8.5
2014-Oct-19 02:33N 46°36' W 002°09'8 8.3
2014-Oct-19 01:33N 46°32' W 001°58'8 7.9
2014-Oct-19 00:33N 46°29' W 001°47'1 1.1
2014-Oct-18 23:33N 46°30' W 001°47'6 5.6
2014-Oct-18 22:33N 46°31' W 001°55'9 9.0
2014-Oct-18 21:33N 46°35' W 002°07'5 0.3
2014-Oct-18 02:33N 46°37' W 002°13'8 8.4
2014-Oct-18 01:33N 46°33' W 002°03'8 8.2
2014-Oct-18 00:33N 46°29' W 001°52'3 3.4
2014-Oct-17 23:33N 46°30' W 001°47'0 0.4
2014-Oct-17 22:34N 46°30' W 001°48'7 6.7
2014-Oct-17 21:33N 46°31' W 001°57'10 9.1
2014-Oct-17 20:29N 46°36' W 002°10'17 0.7
2014-Oct-16 20:16N 46°30' W 001°47'0 0.0
2014-Oct-16 19:33N 46°30' W 001°47'0 0.0
2014-Oct-16 18:33N 46°30' W 001°47'0 0.0
2014-Oct-16 17:33N 46°30' W 001°47'2 2.3
2014-Oct-16 16:33N 46°28' W 001°50'9 8.6
2014-Oct-16 15:33N 46°32' W 002°02'11 2.6
2014-Oct-16 11:29N 46°33' W 002°17'8 6.6
2014-Oct-16 10:12N 46°25' W 002°11'1 0.6
2014-Oct-16 09:16N 46°25' W 002°12'2 1.2
2014-Oct-16 07:19N 46°23' W 002°12'7 7.4
2014-Oct-16 06:25N 46°25' W 002°03'7 8.5
2014-Oct-16 05:33N 46°27' W 001°53'5 4.7
2014-Oct-16 04:33N 46°30' W 001°47'0 0.0
2014-Oct-16 03:33N 46°30' W 001°47'0 0.0
2014-Oct-16 02:33N 46°30' W 001°47'0 0.0
2014-Oct-16 01:34N 46°30' W 001°47'0 0.0
2014-Oct-16 00:33N 46°30' W 001°47'0 0.0
2014-Oct-15 23:33N 46°30' W 001°47'0 0.0
2014-Oct-15 22:33N 46°30' W 001°47'0 0.0
2014-Oct-15 21:33N 46°30' W 001°47'0 0.0
2014-Oct-15 20:33N 46°30' W 001°47'0 0.2
2014-Oct-15 19:33N 46°30' W 001°47'1 1.1
2014-Oct-15 18:33N 46°29' W 001°47'9 9.5
2014-Oct-15 17:33N 46°28' W 002°01'6 2.8
2014-Oct-15 15:31N 46°25' W 002°08'1 0.7
2014-Oct-15 14:04N 46°25' W 002°09'1 0.5
2014-Oct-15 12:33N 46°24' W 002°10'1 0.7
2014-Oct-15 11:24N 46°24' W 002°11'8 0.5
2014-Oct-14 20:07N 46°18' W 002°03'5 9.8
2014-Oct-14 19:33N 46°22' W 001°58'10 9.8
2014-Oct-14 18:33N 46°29' W 001°47'1 1.4
2014-Oct-14 17:33N 46°30' W 001°47'8 8.1
2014-Oct-14 16:33N 46°27' W 001°58'9 9.1
2014-Oct-14 15:33N 46°24' W 002°11'2 1.8
2014-Oct-14 14:33N 46°23' W 002°12'7 7.2
2014-Oct-14 13:33N 46°30' W 002°09'2 1.6
2014-Oct-14 12:30N 46°31' W 002°10'0 0.3
2014-Oct-14 11:33N 46°31' W 002°11'1 1.3
2014-Oct-14 10:33N 46°31' W 002°09'5 2.4
2014-Oct-14 08:33N 46°31' W 002°16'1 1.3
2014-Oct-14 07:24N 46°30' W 002°14'1 1.1
2014-Oct-14 06:34N 46°31' W 002°15'9 8.6
2014-Oct-14 05:33N 46°30' W 002°03'9 9.5
2014-Oct-14 04:33N 46°28' W 001°49'2 1.8
2014-Oct-14 03:33N 46°30' W 001°48'0 0.0
2014-Oct-14 02:33N 46°30' W 001°48'0 0.0
2014-Oct-14 01:33N 46°30' W 001°48'0 0.0
2014-Oct-14 00:33N 46°30' W 001°48'0 0.0
2014-Oct-13 23:33N 46°30' W 001°48'0 0.0
2014-Oct-13 22:33N 46°30' W 001°48'0 0.0
2014-Oct-13 21:33N 46°30' W 001°48'0 0.2
2014-Oct-13 20:34N 46°30' W 001°47'0 0.4
2014-Oct-13 19:34N 46°30' W 001°48'8 8.1
2014-Oct-13 18:33N 46°30' W 001°59'10 4.2
2014-Oct-13 16:16N 46°31' W 002°13'2 1.1
2014-Oct-13 14:33N 46°30' W 002°16'1 0.4
2014-Oct-13 12:30N 46°31' W 002°16'1 1.6
2014-Oct-13 11:33N 46°31' W 002°14'1 0.6
2014-Oct-13 09:22N 46°30' W 002°16'4 1.5
2014-Oct-13 06:32N 46°26' W 002°16'8 6.7
2014-Oct-13 05:22N 46°27' W 002°04'7 8.4
2014-Oct-13 04:33N 46°28' W 001°55'5 5.1
2014-Oct-13 03:33N 46°30' W 001°48'0 0.0
2014-Oct-13 02:33N 46°30' W 001°48'0 0.0
2014-Oct-13 01:33N 46°30' W 001°48'0 0.0
2014-Oct-13 00:33N 46°30' W 001°48'0 0.0
2014-Oct-12 23:33N 46°30' W 001°48'0 0.0
2014-Oct-12 22:33N 46°30' W 001°48'0 0.0
2014-Oct-12 21:33N 46°30' W 001°48'0 0.0
2014-Oct-12 20:33N 46°30' W 001°48'0 0.0
2014-Oct-12 19:33N 46°30' W 001°48'0 0.0
2014-Oct-12 18:33N 46°30' W 001°48'4 4.0
2014-Oct-12 17:33N 46°26' W 001°47'20 1.8
2014-Oct-12 06:33N 46°06' W 001°48'9 9.3
2014-Oct-12 05:33N 46°16' W 001°48'10 9.6
2014-Oct-12 04:33N 46°25' W 001°48'5 4.8
2014-Oct-12 03:33N 46°30' W 001°47'0 0.2
2014-Oct-12 02:33N 46°30' W 001°47'0 0.0
2014-Oct-12 01:33N 46°30' W 001°47'0 0.0
2014-Oct-12 00:33N 46°30' W 001°47'0 0.0
2014-Oct-11 23:33N 46°30' W 001°47'0 0.0
2014-Oct-11 22:33N 46°30' W 001°47'0 0.0
2014-Oct-11 21:33N 46°30' W 001°47'0 0.0
2014-Oct-11 20:33N 46°30' W 001°47'0 0.0
2014-Oct-11 19:33N 46°30' W 001°47'8 7.8
2014-Oct-11 18:33N 46°22' W 001°47'17 2.8
2014-Oct-11 12:32N 46°05' W 001°48'1 0.2
2014-Oct-11 08:10N 46°06' W 001°47'3 4.9
2014-Oct-11 07:30N 46°07' W 001°52'1 1.4
2014-Oct-11 06:26N 46°08' W 001°51'3 3.6
2014-Oct-11 05:33N 46°11' W 001°52'6 6.4
2014-Oct-11 04:33N 46°18' W 001°50'6 6.3
2014-Oct-11 03:33N 46°24' W 001°49'  

Dump ship's entire track history